Time;durP1;ratioP1;P1;durP2;ratioP2;P2;SDS_P1;SDS_P2;PMS_P1;PMS_P2;Temp;Humidity;BMP_temperature;BMP_pressure;BME280_temperature;BME280_humidity;BME280_pressure;Samples;Min_cycle;Max_cycle;Signal;HPM_P1;HPM_P2
2022/09/09 00:00:12;;;;;;;3.15;1.50;;;;;;;;;;4882047;29;20044;-79
2022/09/09 00:02:38;;;;;;;3.55;1.30;;;;;;;;;;4882283;29;20035;-79
2022/09/09 00:05:04;;;;;;;3.15;1.55;;;;;;;;;;4882878;29;20386;-78
2022/09/09 00:07:33;;;;;;;2.47;1.13;;;;;;;;;;4899328;29;20089;-78
2022/09/09 00:10:06;;;;;;;3.15;1.58;;;;;;;;;;4882342;29;20032;-78
2022/09/09 00:12:42;;;;;;;2.22;1.35;;;;;;;;;;4882318;29;20037;-78
2022/09/09 00:15:20;;;;;;;2.72;1.38;;;;;;;;;;4899235;29;20033;-79
2022/09/09 00:17:49;;;;;;;4.03;1.60;;;;;;;;;;4899295;29;20028;-78
2022/09/09 00:20:20;;;;;;;2.50;1.40;;;;;;;;;;4882051;29;20040;-78
2022/09/09 00:22:51;;;;;;;4.05;1.13;;;;;;;;;;4899115;29;20132;-77
2022/09/09 00:25:24;;;;;;;2.63;1.30;;;;;;;;;;4882046;29;20032;-76
2022/09/09 00:27:51;;;;;;;2.85;1.58;;;;;;;;;;4878747;29;20049;-77
2022/09/09 00:30:19;;;;;;;2.75;1.50;;;;;;;;;;4880409;29;20025;-78
2022/09/09 00:32:46;;;;;;;4.55;1.50;;;;;;;;;;4879221;29;20053;-78
2022/09/09 00:35:25;;;;;;;2.28;1.20;;;;;;;;;;4881678;29;20087;-76
2022/09/09 00:37:53;;;;;;;2.20;1.30;;;;;;;;;;4880148;29;20029;-78
2022/09/09 00:40:26;;;;;;;2.70;1.60;;;;;;;;;;4863997;29;20045;-77
2022/09/09 00:43:03;;;;;;;2.07;1.20;;;;;;;;;;4878954;29;20025;-79
2022/09/09 00:45:36;;;;;;;2.17;1.30;;;;;;;;;;4878946;29;20036;-78
2022/09/09 00:48:08;;;;;;;4.22;1.50;;;;;;;;;;4880391;29;20062;-78
2022/09/09 00:50:34;;;;;;;2.58;1.42;;;;;;;;;;4879056;29;20029;-78
2022/09/09 00:53:13;;;;;;;2.60;1.40;;;;;;;;;;4878753;29;20054;-78
2022/09/09 00:55:45;;;;;;;2.83;1.15;;;;;;;;;;4878932;29;20029;-79
2022/09/09 00:58:12;;;;;;;5.90;1.40;;;;;;;;;;4878929;29;20025;-76
2022/09/09 01:00:44;;;;;;;3.83;2.00;;;;;;;;;;4881526;29;20119;-77
2022/09/09 01:03:24;;;;;;;2.75;1.50;;;;;;;;;;4878723;29;20025;-78
2022/09/09 01:06:05;;;;;;;3.47;2.13;;;;;;;;;;4878437;29;20044;-79
2022/09/09 01:08:31;;;;;;;6.30;2.95;;;;;;;;;;4879621;29;20074;-78
2022/09/09 01:11:02;;;;;;;4.70;3.30;;;;;;;;;;4882942;29;20043;-78
2022/09/09 01:13:36;;;;;;;4.85;2.72;;;;;;;;;;4881770;29;20487;-78
2022/09/09 01:16:04;;;;;;;4.78;3.25;;;;;;;;;;4865893;29;20119;-77
2022/09/09 01:18:36;;;;;;;3.75;2.72;;;;;;;;;;4881502;29;20120;-79
2022/09/09 01:21:21;;;;;;;2.93;2.03;;;;;;;;;;4865759;29;20084;-79
2022/09/09 01:23:50;;;;;;;2.63;1.75;;;;;;;;;;4881521;29;20039;-79
2022/09/09 01:26:16;;;;;;;2.75;1.83;;;;;;;;;;4865737;29;20033;-79
2022/09/09 01:28:47;;;;;;;2.50;1.48;;;;;;;;;;4882875;29;20418;-80
2022/09/09 01:31:15;;;;;;;4.18;1.98;;;;;;;;;;4884149;29;20173;-77
2022/09/09 01:33:41;;;;;;;3.25;2.20;;;;;;;;;;4901064;29;20112;-78
2022/09/09 01:36:18;;;;;;;2.60;1.80;;;;;;;;;;4900998;29;20409;-77
2022/09/09 01:38:44;;;;;;;3.42;2.22;;;;;;;;;;4883841;29;20123;-77
2022/09/09 01:41:10;;;;;;;4.00;1.90;;;;;;;;;;4901149;29;20108;-76
2022/09/09 01:43:36;;;;;;;5.50;1.75;;;;;;;;;;4884045;29;20039;-78
2022/09/09 01:46:03;;;;;;;5.38;1.88;;;;;;;;;;4900796;29;20499;-77
2022/09/09 01:48:30;;;;;;;2.65;1.58;;;;;;;;;;4884353;29;20024;-78
2022/09/09 01:50:56;;;;;;;5.95;2.13;;;;;;;;;;4900910;29;20036;-78
2022/09/09 01:53:23;;;;;;;2.78;1.60;;;;;;;;;;4900838;29;20036;-79
2022/09/09 01:56:18;;;;;;;2.47;1.60;;;;;;;;;;4883898;29;20036;-77
2022/09/09 01:58:47;;;;;;;2.45;1.55;;;;;;;;;;4834063;29;20046;-78
2022/09/09 02:01:49;;;;;;;2.75;1.52;;;;;;;;;;4884067;29;20040;-78
2022/09/09 02:04:22;;;;;;;3.55;1.92;;;;;;;;;;4809515;29;20033;-78
2022/09/09 02:06:48;;;;;;;2.80;1.42;;;;;;;;;;4889070;29;20045;-78
2022/09/09 02:09:18;;;;;;;3.42;2.00;;;;;;;;;;4883987;29;20517;-78
2022/09/09 02:11:46;;;;;;;5.78;2.20;;;;;;;;;;4883734;29;20029;-78
2022/09/09 02:14:19;;;;;;;2.60;1.60;;;;;;;;;;4883808;29;20101;-77
2022/09/09 02:16:48;;;;;;;3.65;2.05;;;;;;;;;;4883910;29;20036;-77
2022/09/09 02:19:25;;;;;;;4.43;2.50;;;;;;;;;;4900352;29;20041;-79
2022/09/09 02:21:53;;;;;;;6.00;2.22;;;;;;;;;;4883452;29;20112;-79
2022/09/09 02:24:19;;;;;;;5.65;1.80;;;;;;;;;;4883855;29;20033;-78
2022/09/09 02:26:46;;;;;;;4.05;1.90;;;;;;;;;;4883499;29;20063;-78
2022/09/09 02:29:18;;;;;;;3.42;2.00;;;;;;;;;;4883749;29;20041;-78
2022/09/09 02:31:45;;;;;;;6.15;2.70;;;;;;;;;;4883483;29;20390;-78
2022/09/09 02:34:12;;;;;;;3.17;2.03;;;;;;;;;;4900205;29;20094;-77
2022/09/09 02:36:41;;;;;;;3.17;2.00;;;;;;;;;;4900168;29;20107;-78
2022/09/09 02:39:08;;;;;;;3.83;2.03;;;;;;;;;;4882818;29;20438;-78
2022/09/09 02:41:36;;;;;;;3.00;1.73;;;;;;;;;;4900260;29;20033;-78
2022/09/09 02:44:06;;;;;;;2.65;1.55;;;;;;;;;;4900173;29;20060;-77
2022/09/09 02:46:44;;;;;;;3.88;2.05;;;;;;;;;;4883181;29;20028;-76
2022/09/09 02:49:16;;;;;;;5.93;2.08;;;;;;;;;;4883628;29;20047;-77
2022/09/09 02:51:50;;;;;;;2.97;2.08;;;;;;;;;;4883515;29;20036;-77
2022/09/09 02:54:19;;;;;;;3.35;1.20;;;;;;;;;;4883387;29;20047;-78
2022/09/09 02:57:09;;;;;;;3.13;2.05;;;;;;;;;;4882899;29;20029;-78
2022/09/09 02:59:35;;;;;;;2.85;1.77;;;;;;;;;;4889628;29;20053;-78
2022/09/09 03:02:01;;;;;;;4.95;1.77;;;;;;;;;;4882624;29;20120;-78
2022/09/09 03:04:27;;;;;;;2.58;1.58;;;;;;;;;;4882718;29;20076;-78
2022/09/09 03:06:53;;;;;;;2.20;1.40;;;;;;;;;;4882793;29;20120;-78
2022/09/09 03:09:19;;;;;;;3.70;1.70;;;;;;;;;;4882651;29;20029;-78
2022/09/09 03:11:46;;;;;;;2.75;1.35;;;;;;;;;;4899403;29;20036;-79
2022/09/09 03:14:12;;;;;;;5.45;2.70;;;;;;;;;;4882872;29;20032;-77
2022/09/09 03:16:38;;;;;;;4.10;1.90;;;;;;;;;;4899547;29;20479;-76
2022/09/09 03:19:04;;;;;;;2.75;1.85;;;;;;;;;;4882521;29;20123;-78
2022/09/09 03:21:31;;;;;;;2.97;1.98;;;;;;;;;;4882836;29;20048;-76
2022/09/09 03:23:57;;;;;;;3.45;2.00;;;;;;;;;;4882772;29;20387;-78
2022/09/09 03:26:24;;;;;;;3.53;1.83;;;;;;;;;;4882830;29;20079;-78
2022/09/09 03:28:51;;;;;;;4.50;1.92;;;;;;;;;;4882024;29;20053;-77
2022/09/09 03:31:19;;;;;;;2.40;1.50;;;;;;;;;;4881797;29;20028;-78
2022/09/09 03:33:45;;;;;;;3.42;1.70;;;;;;;;;;4882407;29;20033;-77
2022/09/09 03:36:11;;;;;;;6.13;2.38;;;;;;;;;;4899676;29;20032;-78
2022/09/09 03:38:37;;;;;;;3.15;2.00;;;;;;;;;;4899537;29;20049;-77
2022/09/09 03:41:05;;;;;;;4.35;1.98;;;;;;;;;;4898814;29;20041;-78
2022/09/09 03:43:32;;;;;;;3.40;2.10;;;;;;;;;;4882114;29;20067;-78
2022/09/09 03:45:58;;;;;;;3.72;1.80;;;;;;;;;;4882305;29;20443;-76
2022/09/09 03:48:25;;;;;;;2.92;1.75;;;;;;;;;;4899894;29;20028;-77
2022/09/09 03:50:53;;;;;;;5.65;2.00;;;;;;;;;;4882359;29;20029;-77
2022/09/09 03:53:20;;;;;;;7.22;3.00;;;;;;;;;;4899239;29;20029;-79
2022/09/09 03:55:46;;;;;;;8.90;4.20;;;;;;;;;;4883028;29;20041;-78
2022/09/09 03:58:14;;;;;;;8.43;3.30;;;;;;;;;;4899854;29;20028;-77
2022/09/09 04:00:42;;;;;;;12.00;4.63;;;;;;;;;;4899467;29;20037;-78
2022/09/09 04:03:09;;;;;;;9.23;3.55;;;;;;;;;;4882535;29;20032;-77
2022/09/09 04:05:39;;;;;;;8.95;4.55;;;;;;;;;;4898759;29;20064;-79
2022/09/09 04:08:06;;;;;;;11.13;4.20;;;;;;;;;;4882336;29;20024;-77
2022/09/09 04:10:32;;;;;;;7.57;3.60;;;;;;;;;;4899271;29;20112;-78
2022/09/09 04:12:59;;;;;;;7.88;3.63;;;;;;;;;;4899043;29;20076;-76
2022/09/09 04:15:25;;;;;;;9.75;3.50;;;;;;;;;;4898709;29;20028;-79
2022/09/09 04:17:51;;;;;;;8.85;3.85;;;;;;;;;;4882134;29;20029;-79
2022/09/09 04:20:19;;;;;;;10.32;3.80;;;;;;;;;;4898332;29;20040;-77
2022/09/09 04:22:45;;;;;;;7.70;3.53;;;;;;;;;;4881885;29;20024;-78
2022/09/09 04:25:11;;;;;;;7.45;3.55;;;;;;;;;;4898511;29;20037;-79
2022/09/09 04:27:37;;;;;;;7.53;3.88;;;;;;;;;;4898307;29;20053;-79
2022/09/09 04:30:04;;;;;;;9.23;4.07;;;;;;;;;;4898566;29;20092;-78
2022/09/09 04:32:32;;;;;;;8.75;3.50;;;;;;;;;;4898190;29;20028;-78
2022/09/09 04:34:58;;;;;;;4.07;2.45;;;;;;;;;;4898389;29;20088;-79
2022/09/09 04:37:25;;;;;;;5.00;3.53;;;;;;;;;;4898488;29;20595;-79
2022/09/09 04:39:51;;;;;;;5.10;2.90;;;;;;;;;;4898490;29;20483;-78
2022/09/09 04:42:19;;;;;;;11.55;3.40;;;;;;;;;;4898669;29;20036;-77
2022/09/09 04:44:45;;;;;;;7.50;3.10;;;;;;;;;;4883778;29;20060;-77
2022/09/09 04:47:11;;;;;;;6.10;3.38;;;;;;;;;;4902056;29;20036;-77
2022/09/09 04:49:38;;;;;;;8.77;3.33;;;;;;;;;;4901868;29;20025;-78
2022/09/09 04:52:04;;;;;;;4.60;3.20;;;;;;;;;;4901959;29;20037;-79
2022/09/09 04:54:30;;;;;;;9.02;3.70;;;;;;;;;;4884887;29;20115;-77
2022/09/09 04:56:57;;;;;;;5.68;2.80;;;;;;;;;;4885322;29;20545;-79
2022/09/09 04:59:23;;;;;;;10.88;2.83;;;;;;;;;;4901776;29;20044;-78
2022/09/09 05:01:50;;;;;;;4.97;3.10;;;;;;;;;;4885041;29;20029;-78
2022/09/09 05:04:16;;;;;;;5.35;3.13;;;;;;;;;;4901646;29;20502;-78
2022/09/09 05:06:42;;;;;;;5.88;2.97;;;;;;;;;;4901459;29;20049;-79
2022/09/09 05:09:09;;;;;;;6.05;2.92;;;;;;;;;;4884816;29;20541;-77
2022/09/09 05:11:38;;;;;;;3.88;2.20;;;;;;;;;;4885023;29;20033;-81
2022/09/09 05:14:05;;;;;;;4.05;2.75;;;;;;;;;;4885293;29;20025;-79
2022/09/09 05:16:31;;;;;;;3.65;2.53;;;;;;;;;;4878629;29;20128;-77
2022/09/09 05:18:58;;;;;;;6.00;2.47;;;;;;;;;;4900241;29;20470;-77
2022/09/09 05:21:26;;;;;;;4.30;2.35;;;;;;;;;;4900363;29;20032;-77
2022/09/09 05:23:52;;;;;;;7.00;2.67;;;;;;;;;;4882262;29;20399;-77
2022/09/09 05:26:19;;;;;;;4.88;2.50;;;;;;;;;;4880797;29;20025;-77
2022/09/09 05:28:46;;;;;;;6.10;2.75;;;;;;;;;;4877350;29;20050;-78
2022/09/09 05:31:13;;;;;;;3.83;2.50;;;;;;;;;;4878482;29;20039;-77
2022/09/09 05:33:40;;;;;;;3.60;2.13;;;;;;;;;;4887601;29;20119;-77
2022/09/09 05:36:08;;;;;;;5.53;2.80;;;;;;;;;;4865214;29;20033;-79
2022/09/09 05:38:35;;;;;;;7.43;2.88;;;;;;;;;;4889419;29;20112;-76
2022/09/09 05:41:02;;;;;;;6.55;3.15;;;;;;;;;;4900674;29;20054;-77
2022/09/09 05:43:29;;;;;;;7.35;3.10;;;;;;;;;;4899316;29;20115;-89
2022/09/09 05:46:01;;;;;;;4.55;2.70;;;;;;;;;;4888168;29;20413;-77
2022/09/09 05:48:34;;;;;;;9.93;3.05;;;;;;;;;;4895641;29;20025;-75
2022/09/09 05:51:02;;;;;;;12.48;2.97;;;;;;;;;;4899378;29;20069;-77
2022/09/09 05:53:32;;;;;;;10.38;2.67;;;;;;;;;;4886665;29;20104;-76
2022/09/09 05:56:03;;;;;;;4.20;1.65;;;;;;;;;;4879755;29;20033;-76
2022/09/09 05:58:29;;;;;;;2.33;1.40;;;;;;;;;;4880291;29;20040;-77
2022/09/09 06:01:01;;;;;;;2.42;1.00;;;;;;;;;;4880285;29;20037;-76
2022/09/09 06:03:27;;;;;;;4.00;1.00;;;;;;;;;;4880108;29;20033;-76
2022/09/09 06:06:00;;;;;;;1.77;1.10;;;;;;;;;;4880267;29;20368;-75
2022/09/09 06:08:26;;;;;;;2.08;0.80;;;;;;;;;;4881355;29;20037;-75
2022/09/09 06:10:53;;;;;;;5.50;0.95;;;;;;;;;;4879756;29;20040;-76
2022/09/09 06:13:19;;;;;;;2.50;0.80;;;;;;;;;;4880483;29;20029;-76
2022/09/09 06:15:54;;;;;;;1.98;0.80;;;;;;;;;;4890313;29;20032;-76
2022/09/09 06:18:20;;;;;;;4.72;1.02;;;;;;;;;;4886366;29;20386;-77
2022/09/09 06:20:54;;;;;;;2.10;0.68;;;;;;;;;;4890773;29;20410;-77
2022/09/09 06:23:20;;;;;;;1.98;1.13;;;;;;;;;;4891090;29;20103;-76
2022/09/09 06:25:46;;;;;;;2.65;0.60;;;;;;;;;;4896185;29;20517;-77
2022/09/09 06:28:13;;;;;;;5.32;0.73;;;;;;;;;;4911588;29;20063;-77
2022/09/09 06:30:40;;;;;;;3.10;1.08;;;;;;;;;;4903848;29;20028;-76
2022/09/09 06:33:06;;;;;;;2.80;0.90;;;;;;;;;;4888995;29;20055;-79
2022/09/09 06:35:32;;;;;;;7.95;1.20;;;;;;;;;;4883398;29;20032;-75
2022/09/09 06:37:58;;;;;;;2.40;1.00;;;;;;;;;;4902154;29;20032;-85
2022/09/09 06:40:25;;;;;;;2.65;0.93;;;;;;;;;;4893766;29;20040;-82
2022/09/09 06:42:51;;;;;;;2.58;1.00;;;;;;;;;;4889512;29;20032;-82
2022/09/09 06:45:30;;;;;;;;;;;;;;;;;;;;;
2022/09/09 06:48:08;;;;;;;2.97;1.63;;;;;;;;;;4914297;23;20091;-77
2022/09/09 06:50:35;;;;;;;3.63;1.80;;;;;;;;;;4886618;29;20028;-80
2022/09/09 06:53:02;;;;;;;3.45;1.58;;;;;;;;;;4887915;29;20490;-78
2022/09/09 06:55:30;;;;;;;6.45;2.17;;;;;;;;;;4869421;29;20088;-86
2022/09/09 07:00:49;;;;;;;;;;;;;;;;;;4896397;29;20061;-74
2022/09/09 07:03:17;;;;;;;6.22;3.00;;;;;;;;;;4913425;29;19922;-76
2022/09/09 07:05:55;;;;;;;2.97;1.13;;;;;;;;;;4919001;29;20028;-89
2022/09/09 07:08:21;;;;;;;3.90;1.05;;;;;;;;;;4902329;29;20095;-87
2022/09/09 07:10:47;;;;;;;2.65;1.00;;;;;;;;;;4902632;29;20122;-89
2022/09/09 07:13:15;;;;;;;3.65;1.02;;;;;;;;;;4902832;29;20028;-75
2022/09/09 07:15:41;;;;;;;2.72;0.95;;;;;;;;;;4914329;29;20036;-77
2022/09/09 07:18:10;;;;;;;2.63;0.85;;;;;;;;;;4899292;29;20079;-85
2022/09/09 07:20:36;;;;;;;1.42;0.55;;;;;;;;;;4899358;29;20505;-75
2022/09/09 07:23:02;;;;;;;1.08;0.45;;;;;;;;;;4897755;29;20055;-74
2022/09/09 07:25:29;;;;;;;1.42;0.50;;;;;;;;;;4899695;29;20054;-83
2022/09/09 07:27:57;;;;;;;0.93;0.20;;;;;;;;;;4898218;29;20071;-83
2022/09/09 07:30:23;;;;;;;2.78;0.30;;;;;;;;;;4898068;29;20469;-75
2022/09/09 07:32:51;;;;;;;1.90;0.38;;;;;;;;;;4897648;29;20386;-80
2022/09/09 07:35:17;;;;;;;1.20;0.28;;;;;;;;;;4898417;29;20028;-78
2022/09/09 07:37:45;;;;;;;0.60;0.30;;;;;;;;;;4898790;29;20029;-79
2022/09/09 07:40:11;;;;;;;2.00;0.28;;;;;;;;;;4897927;29;20051;-75
2022/09/09 07:42:37;;;;;;;0.75;0.38;;;;;;;;;;4897704;29;20028;-80
2022/09/09 07:45:04;;;;;;;1.77;0.20;;;;;;;;;;4898803;29;20050;-82
2022/09/09 07:47:30;;;;;;;0.43;0.20;;;;;;;;;;4898036;29;20052;-75
2022/09/09 07:49:56;;;;;;;1.10;0.30;;;;;;;;;;4898924;29;20063;-78
2022/09/09 07:52:23;;;;;;;0.85;0.22;;;;;;;;;;4900522;29;20035;-81
2022/09/09 07:54:49;;;;;;;1.45;0.22;;;;;;;;;;4899627;29;20033;-81
2022/09/09 07:57:16;;;;;;;0.73;0.22;;;;;;;;;;4898447;29;20024;-76
2022/09/09 07:59:42;;;;;;;0.57;0.30;;;;;;;;;;4898377;29;20032;-81
2022/09/09 08:02:12;;;;;;;0.30;0.10;;;;;;;;;;4897460;29;20028;-76
2022/09/09 08:04:38;;;;;;;1.35;0.22;;;;;;;;;;4897780;29;20035;-78
2022/09/09 08:07:05;;;;;;;0.60;0.10;;;;;;;;;;4900465;29;20028;-90
2022/09/09 08:09:32;;;;;;;0.70;0.20;;;;;;;;;;4901399;29;20075;-92
2022/09/09 08:11:59;;;;;;;1.02;0.20;;;;;;;;;;4901336;29;20028;-89
2022/09/09 08:14:26;;;;;;;0.40;0.15;;;;;;;;;;4903587;29;20028;-93
2022/09/09 08:16:53;;;;;;;0.22;0.10;;;;;;;;;;4903278;29;20091;-89
2022/09/09 08:19:20;;;;;;;0.30;0.17;;;;;;;;;;4904660;29;20154;-78
2022/09/09 08:21:46;;;;;;;0.70;0.22;;;;;;;;;;4891671;29;20025;-91
2022/09/09 08:24:14;;;;;;;0.73;0.20;;;;;;;;;;4904333;29;20045;-90
2022/09/09 08:26:42;;;;;;;0.35;0.10;;;;;;;;;;4905434;29;20021;-87
2022/09/09 08:29:10;;;;;;;1.75;0.20;;;;;;;;;;4886986;29;20029;-86
2022/09/09 08:31:36;;;;;;;0.40;0.20;;;;;;;;;;4904435;29;20028;-88
2022/09/09 08:34:03;;;;;;;0.13;0.05;;;;;;;;;;4886981;29;20056;-88
2022/09/09 08:36:30;;;;;;;1.15;0.28;;;;;;;;;;4905583;29;20458;-86
2022/09/09 08:38:57;;;;;;;1.10;0.28;;;;;;;;;;4887017;29;20025;-90
2022/09/09 08:41:37;;;;;;;0.57;0.10;;;;;;;;;;4887990;29;20120;-80
2022/09/09 08:44:06;;;;;;;2.15;0.20;;;;;;;;;;4906175;29;20035;-86
2022/09/09 08:46:35;;;;;;;0.68;0.20;;;;;;;;;;4905641;29;20048;-85
2022/09/09 08:49:11;;;;;;;35.35;1.23;;;;;;;;;;4904712;29;20478;-90
2022/09/09 08:51:37;;;;;;;0.40;0.20;;;;;;;;;;4919684;29;20033;-91
2022/09/09 08:54:05;;;;;;;0.50;0.13;;;;;;;;;;4923787;29;20032;-91
2022/09/09 08:56:33;;;;;;;0.75;0.20;;;;;;;;;;4925777;29;20028;-91
2022/09/09 08:59:02;;;;;;;0.57;0.20;;;;;;;;;;4926941;29;20044;-90
2022/09/09 09:01:31;;;;;;;0.82;0.30;;;;;;;;;;4916624;29;20486;-84
2022/09/09 09:04:27;;;;;;;0.98;0.10;;;;;;;;;;4905065;29;20032;-90
2022/09/09 09:07:16;;;;;;;1.25;0.20;;;;;;;;;;4846377;29;20023;-91
2022/09/09 09:10:01;;;;;;;0.20;0.10;;;;;;;;;;4857767;29;20051;-79
2022/09/09 09:12:29;;;;;;;0.88;0.10;;;;;;;;;;4887772;29;20032;-86
2022/09/09 09:15:00;;;;;;;1.23;0.22;;;;;;;;;;4887877;29;20029;-91
2022/09/09 09:17:27;;;;;;;2.78;0.20;;;;;;;;;;4904792;29;20059;-90
2022/09/09 09:19:54;;;;;;;7.40;0.20;;;;;;;;;;4888410;29;20067;-90
2022/09/09 09:22:53;;;;;;;0.47;0.20;;;;;;;;;;4897976;29;20224;-93
2022/09/09 09:25:20;;;;;;;0.45;0.20;;;;;;;;;;4864582;29;20107;-85
2022/09/09 09:28:05;;;;;;;0.63;0.20;;;;;;;;;;4886399;29;20028;-78
2022/09/09 09:30:42;;;;;;;0.47;0.20;;;;;;;;;;4884488;29;20507;-79
2022/09/09 09:33:20;;;;;;;0.80;0.25;;;;;;;;;;4900750;29;20052;-80
2022/09/09 09:35:55;;;;;;;1.58;0.10;;;;;;;;;;4886236;29;20037;-86
2022/09/09 09:38:23;;;;;;;0.45;0.15;;;;;;;;;;4901452;29;20442;-86
2022/09/09 09:40:59;;;;;;;0.55;0.15;;;;;;;;;;4884334;29;20508;-83
2022/09/09 09:43:28;;;;;;;1.58;0.22;;;;;;;;;;4894339;29;20017;-77
2022/09/09 09:46:00;;;;;;;1.88;0.20;;;;;;;;;;4900533;29;20021;-78
2022/09/09 09:48:27;;;;;;;0.63;0.20;;;;;;;;;;4899381;29;20414;-84
2022/09/09 09:50:53;;;;;;;1.73;0.20;;;;;;;;;;4899179;29;20024;-77
2022/09/09 09:53:21;;;;;;;0.32;0.13;;;;;;;;;;4900363;29;20099;-77
2022/09/09 09:55:54;;;;;;;0.43;0.13;;;;;;;;;;4899234;29;20033;-81
2022/09/09 09:58:20;;;;;;;0.32;0.10;;;;;;;;;;4899059;29;20056;-78
2022/09/09 10:00:50;;;;;;;0.65;0.20;;;;;;;;;;4899105;29;20041;-77
2022/09/09 10:03:17;;;;;;;;;;;;;;;;;;4900251;29;20371;-84
2022/09/09 10:05:46;;;;;;;0.57;0.25;;;;;;;;;;4900192;29;19915;-81
2022/09/09 10:08:14;;;;;;;0.20;0.10;;;;;;;;;;4899309;29;20025;-78
2022/09/09 10:10:53;;;;;;;0.47;0.20;;;;;;;;;;4900341;29;20089;-79
2022/09/09 10:13:19;;;;;;;0.40;0.10;;;;;;;;;;4883200;29;20025;-89
2022/09/09 10:15:45;;;;;;;0.80;0.20;;;;;;;;;;4883064;29;20037;-76
2022/09/09 10:18:11;;;;;;;0.80;0.22;;;;;;;;;;4899838;29;20032;-85
2022/09/09 10:20:49;;;;;;;0.52;0.17;;;;;;;;;;4883052;29;20068;-76
2022/09/09 10:23:34;;;;;;;0.80;0.13;;;;;;;;;;4886228;29;20028;-88
2022/09/09 10:26:00;;;;;;;0.90;0.20;;;;;;;;;;4892008;29;20063;-85
2022/09/09 10:28:47;;;;;;;0.77;0.20;;;;;;;;;;4919507;29;20035;-86
2022/09/09 10:31:28;;;;;;;0.63;0.17;;;;;;;;;;4903316;29;20118;-85
2022/09/09 10:34:07;;;;;;;0.40;0.20;;;;;;;;;;4910339;29;20036;-85
2022/09/09 10:36:33;;;;;;;0.40;0.20;;;;;;;;;;4907340;29;20103;-85
2022/09/09 10:39:15;;;;;;;0.90;0.30;;;;;;;;;;4897846;29;20036;-86
2022/09/09 10:42:02;;;;;;;0.82;0.30;;;;;;;;;;4889340;29;20056;-87
2022/09/09 10:44:34;;;;;;;2.33;0.40;;;;;;;;;;4899204;29;20103;-88
2022/09/09 10:47:03;;;;;;;0.90;0.28;;;;;;;;;;4897737;29;20048;-76
2022/09/09 10:49:58;;;;;;;1.35;0.30;;;;;;;;;;4898191;29;20099;-91
2022/09/09 10:52:24;;;;;;;0.70;0.30;;;;;;;;;;4899319;29;20103;-78
2022/09/09 10:55:11;;;;;;;1.38;0.20;;;;;;;;;;4899341;29;20467;-88
2022/09/09 10:57:40;;;;;;;1.40;0.30;;;;;;;;;;4899493;29;20028;-79
2022/09/09 11:00:08;;;;;;;0.88;0.20;;;;;;;;;;4898112;29;20092;-82
2022/09/09 11:02:35;;;;;;;0.60;0.22;;;;;;;;;;4903909;29;20016;-77
2022/09/09 11:05:04;;;;;;;0.80;0.20;;;;;;;;;;4893974;29;20061;-78
2022/09/09 11:07:53;;;;;;;1.83;0.20;;;;;;;;;;4900848;29;20028;-85
2022/09/09 11:10:40;;;;;;;0.63;0.25;;;;;;;;;;4895707;29;20040;-82
2022/09/09 11:13:22;;;;;;;1.08;0.20;;;;;;;;;;4883956;29;20040;-75
2022/09/09 11:15:53;;;;;;;0.38;0.20;;;;;;;;;;4901132;29;20035;-87
2022/09/09 11:18:23;;;;;;;1.02;0.20;;;;;;;;;;4918646;29;20059;-77
2022/09/09 11:20:52;;;;;;;1.30;0.35;;;;;;;;;;4919110;29;20405;-91
2022/09/09 11:23:45;;;;;;;0.57;0.22;;;;;;;;;;4904376;29;20393;-76
2022/09/09 11:26:27;;;;;;;0.40;0.17;;;;;;;;;;4914912;29;20047;-78
2022/09/09 11:29:11;;;;;;;0.93;0.30;;;;;;;;;;4918026;29;20377;-78
2022/09/09 11:31:44;;;;;;;1.95;0.25;;;;;;;;;;4918708;29;20032;-77
2022/09/09 11:34:12;;;;;;;0.30;0.10;;;;;;;;;;4901091;29;20059;-84
2022/09/09 11:36:39;;;;;;;0.80;0.25;;;;;;;;;;4918693;29;20025;-76
2022/09/09 11:39:23;;;;;;;1.00;0.20;;;;;;;;;;4918690;29;20389;-76
2022/09/09 11:41:49;;;;;;;0.63;0.30;;;;;;;;;;4918202;29;20028;-75
2022/09/09 11:44:23;;;;;;;0.55;0.20;;;;;;;;;;4917770;29;20066;-77
2022/09/09 11:46:51;;;;;;;0.57;0.30;;;;;;;;;;4917620;29;20048;-76
2022/09/09 11:49:28;;;;;;;1.88;0.30;;;;;;;;;;4916450;29;20020;-90
2022/09/09 11:51:54;;;;;;;1.08;0.28;;;;;;;;;;4903982;29;20092;-90
2022/09/09 11:54:34;;;;;;;1.90;0.40;;;;;;;;;;4883507;29;20036;-90
2022/09/09 11:57:04;;;;;;;0.30;0.10;;;;;;;;;;4883334;29;20043;-88
2022/09/09 11:59:32;;;;;;;0.40;0.20;;;;;;;;;;4883438;29;20558;-78
2022/09/09 12:02:01;;;;;;;1.25;0.40;;;;;;;;;;4899260;29;20036;-90
2022/09/09 12:04:28;;;;;;;1.92;0.40;;;;;;;;;;4883345;29;20057;-91
2022/09/09 12:06:54;;;;;;;2.10;0.28;;;;;;;;;;4882568;29;20033;-91
2022/09/09 12:09:32;;;;;;;1.50;0.35;;;;;;;;;;4885530;29;20036;-79
2022/09/09 12:12:25;;;;;;;0.82;0.25;;;;;;;;;;4882170;29;20032;-90
2022/09/09 12:15:02;;;;;;;1.75;0.30;;;;;;;;;;4879409;29;20049;-88
2022/09/09 12:17:30;;;;;;;1.45;0.30;;;;;;;;;;4882044;29;20036;-88
2022/09/09 12:20:17;;;;;;;0.55;0.20;;;;;;;;;;4882492;29;20498;-86
2022/09/09 12:22:56;;;;;;;0.77;0.30;;;;;;;;;;4882048;29;20073;-78
2022/09/09 12:25:22;;;;;;;1.05;0.40;;;;;;;;;;4881725;29;20028;-88
2022/09/09 12:27:49;;;;;;;0.55;0.20;;;;;;;;;;4881877;29;20060;-88
2022/09/09 12:30:16;;;;;;;1.40;0.35;;;;;;;;;;4899190;29;20028;-79
2022/09/09 12:32:44;;;;;;;1.38;0.40;;;;;;;;;;4882358;29;20028;-87
2022/09/09 12:35:10;;;;;;;1.27;0.38;;;;;;;;;;4881601;29;20132;-86
2022/09/09 12:37:46;;;;;;;0.73;0.30;;;;;;;;;;4880827;29;20028;-79
2022/09/09 12:40:34;;;;;;;1.02;0.30;;;;;;;;;;4898356;29;20039;-78
2022/09/09 12:43:01;;;;;;;1.00;0.38;;;;;;;;;;4881872;29;20032;-78
2022/09/09 12:45:31;;;;;;;2.53;0.25;;;;;;;;;;4881972;29;20159;-78
2022/09/09 12:48:15;;;;;;;0.70;0.30;;;;;;;;;;4867036;29;20456;-92
2022/09/09 12:50:52;;;;;;;1.13;0.28;;;;;;;;;;4869373;29;20055;-77
2022/09/09 12:53:38;;;;;;;0.85;0.30;;;;;;;;;;4897930;29;20108;-89
2022/09/09 12:56:07;;;;;;;0.65;0.20;;;;;;;;;;4897161;29;20122;-78
2022/09/09 12:58:34;;;;;;;3.38;0.30;;;;;;;;;;4896996;29;20028;-83
2022/09/09 13:01:04;;;;;;;1.08;0.20;;;;;;;;;;4897129;29;20119;-76
2022/09/09 13:03:30;;;;;;;2.65;0.52;;;;;;;;;;4896928;29;20021;-85
2022/09/09 13:06:11;;;;;;;2.15;0.38;;;;;;;;;;4899059;29;20035;-80
2022/09/09 13:08:38;;;;;;;2.22;0.30;;;;;;;;;;4900485;29;20039;-81
2022/09/09 13:11:07;;;;;;;0.85;0.32;;;;;;;;;;4901521;29;20492;-78
2022/09/09 13:13:38;;;;;;;0.40;0.10;;;;;;;;;;4900360;29;20039;-83
2022/09/09 13:16:06;;;;;;;0.50;0.20;;;;;;;;;;4900248;29;20112;-78
2022/09/09 13:18:34;;;;;;;0.43;0.20;;;;;;;;;;4902152;29;20021;-81
2022/09/09 13:21:01;;;;;;;0.70;0.20;;;;;;;;;;4901387;29;20480;-86
2022/09/09 13:23:29;;;;;;;1.60;0.40;;;;;;;;;;4901074;29;20031;-86
2022/09/09 13:25:59;;;;;;;0.82;0.20;;;;;;;;;;4900005;29;20041;-85
2022/09/09 13:28:27;;;;;;;1.38;0.35;;;;;;;;;;4901000;29;20131;-89
2022/09/09 13:31:00;;;;;;;1.13;0.20;;;;;;;;;;4900688;29;20033;-79
2022/09/09 13:33:33;;;;;;;1.30;0.30;;;;;;;;;;4900890;29;20474;-82
2022/09/09 13:36:03;;;;;;;1.77;0.30;;;;;;;;;;4902185;29;20032;-80
2022/09/09 13:38:30;;;;;;;0.93;0.20;;;;;;;;;;4900709;29;20060;-88
2022/09/09 13:40:57;;;;;;;1.58;0.20;;;;;;;;;;4900649;29;20536;-86
2022/09/09 13:43:24;;;;;;;3.08;0.38;;;;;;;;;;4900952;29;20069;-83
2022/09/09 13:45:56;;;;;;;1.17;0.30;;;;;;;;;;4902435;29;20537;-80
2022/09/09 13:48:22;;;;;;;0.50;0.17;;;;;;;;;;4900028;29;20048;-87
2022/09/09 13:50:54;;;;;;;1.48;0.20;;;;;;;;;;4904698;29;20152;-78
2022/09/09 13:53:21;;;;;;;0.50;0.13;;;;;;;;;;4900754;29;20037;-79
2022/09/09 13:58:18;;;;;;;2.60;0.30;;;;;;;;;;4881016;29;20041;-81
2022/09/09 14:00:45;;;;;;;0.65;0.30;;;;;;;;;;4881240;29;20123;-86
2022/09/09 14:03:12;;;;;;;0.32;0.20;;;;;;;;;;4882017;29;20058;-81
2022/09/09 14:05:38;;;;;;;0.73;0.20;;;;;;;;;;4880648;29;20468;-85
2022/09/09 14:08:05;;;;;;;1.52;0.43;;;;;;;;;;4881515;29;20065;-80
2022/09/09 14:10:32;;;;;;;3.50;0.38;;;;;;;;;;4882370;29;20108;-80
2022/09/09 14:12:58;;;;;;;1.25;0.30;;;;;;;;;;4880377;29;20036;-80
2022/09/09 14:15:24;;;;;;;2.90;0.20;;;;;;;;;;4882014;29;20061;-87
2022/09/09 14:17:52;;;;;;;1.35;0.35;;;;;;;;;;4881556;29;20537;-85
2022/09/09 14:20:19;;;;;;;1.38;0.30;;;;;;;;;;4881431;29;20056;-86
2022/09/09 14:22:45;;;;;;;3.58;0.73;;;;;;;;;;4880961;29;20029;-86
2022/09/09 14:25:13;;;;;;;5.45;0.60;;;;;;;;;;4881447;29;20057;-86
2022/09/09 14:27:39;;;;;;;0.50;0.20;;;;;;;;;;4880157;29;20025;-85
2022/09/09 14:30:06;;;;;;;0.90;0.30;;;;;;;;;;4886831;29;20033;-86
2022/09/09 14:32:32;;;;;;;4.03;0.63;;;;;;;;;;4881018;29;20617;-85
2022/09/09 14:34:59;;;;;;;4.18;0.90;;;;;;;;;;4880281;29;20112;-86
2022/09/09 14:37:26;;;;;;;3.30;0.55;;;;;;;;;;4881062;29;20063;-86
2022/09/09 14:39:53;;;;;;;4.53;0.50;;;;;;;;;;4880529;29;20036;-79
2022/09/09 14:42:20;;;;;;;1.75;0.30;;;;;;;;;;4880937;29;20032;-82
2022/09/09 14:44:47;;;;;;;0.98;0.40;;;;;;;;;;4881467;29;20068;-80
2022/09/09 14:47:13;;;;;;;2.28;0.70;;;;;;;;;;4880052;29;20040;-79
2022/09/09 14:49:39;;;;;;;5.07;0.80;;;;;;;;;;4881076;29;20037;-80
2022/09/09 14:52:06;;;;;;;6.10;0.82;;;;;;;;;;4879597;29;20035;-79
2022/09/09 14:54:32;;;;;;;1.35;0.52;;;;;;;;;;4879829;29;20487;-78
2022/09/09 14:56:59;;;;;;;2.65;0.60;;;;;;;;;;4880675;29;20406;-78
2022/09/09 14:59:25;;;;;;;10.05;0.85;;;;;;;;;;4879697;29;20036;-87
2022/09/09 15:01:52;;;;;;;3.28;0.50;;;;;;;;;;4880413;29;20040;-87
2022/09/09 15:04:18;;;;;;;5.65;0.50;;;;;;;;;;4881344;29;20518;-87